Time;durP1;ratioP1;P1;durP2;ratioP2;P2;SDS_P1;SDS_P2;PMS_P1;PMS_P2;Temp;Humidity;BMP_temperature;BMP_pressure;BME280_temperature;BME280_humidity;BME280_pressure;Samples;Min_cycle;Max_cycle;Signal;HPM_P1;HPM_P2
2022/05/20 00:01:05;;;;;;;10.07;9.07;;;;;;;;;;4984643;28;20232;-72
2022/05/20 00:03:33;;;;;;;10.77;9.67;;;;;;;;;;4990617;28;20240;-73
2022/05/20 00:05:59;;;;;;;10.67;9.67;;;;;;;;;;4990675;28;20202;-73
2022/05/20 00:08:26;;;;;;;10.03;8.60;;;;;;;;;;4971808;28;20644;-73
2022/05/20 00:10:53;;;;;;;9.73;8.80;;;;;;;;;;4992157;28;20313;-73
2022/05/20 00:13:19;;;;;;;11.03;9.77;;;;;;;;;;4993878;28;20999;-73
2022/05/20 00:15:45;;;;;;;10.93;9.60;;;;;;;;;;4992982;28;20250;-72
2022/05/20 00:18:11;;;;;;;10.90;9.67;;;;;;;;;;4985927;28;20219;-73
2022/05/20 00:20:37;;;;;;;12.67;10.00;;;;;;;;;;4986543;28;20774;-72
2022/05/20 00:23:03;;;;;;;12.23;10.10;;;;;;;;;;4986832;28;20193;-73
2022/05/20 00:25:48;;;;;;;10.67;9.57;;;;;;;;;;4989545;28;20186;-72
2022/05/20 00:28:21;;;;;;;11.20;10.03;;;;;;;;;;4989567;28;20525;-72
2022/05/20 00:30:47;;;;;;;11.77;9.73;;;;;;;;;;4970755;28;20664;-73
2022/05/20 00:33:13;;;;;;;10.40;9.13;;;;;;;;;;4990694;28;21136;-73
2022/05/20 00:35:40;;;;;;;11.47;8.70;;;;;;;;;;4989659;28;20193;-73
2022/05/20 00:38:05;;;;;;;11.83;9.70;;;;;;;;;;4983274;28;20235;-73
2022/05/20 00:40:31;;;;;;;12.00;9.73;;;;;;;;;;4986367;28;20189;-73
2022/05/20 00:43:16;;;;;;;11.13;10.00;;;;;;;;;;4993780;28;20201;-73
2022/05/20 00:45:42;;;;;;;11.27;10.17;;;;;;;;;;4981278;28;20224;-73
2022/05/20 00:48:09;;;;;;;11.33;10.23;;;;;;;;;;4989036;28;20353;-73
2022/05/20 00:50:35;;;;;;;11.33;10.23;;;;;;;;;;4986424;28;20190;-72
2022/05/20 00:53:01;;;;;;;11.60;10.37;;;;;;;;;;4990874;28;21149;-73
2022/05/20 00:55:27;;;;;;;11.60;10.10;;;;;;;;;;4988558;28;20190;-73
2022/05/20 00:57:56;;;;;;;11.10;9.90;;;;;;;;;;4981747;28;20222;-72
2022/05/20 01:03:04;;;;;;;12.87;9.77;;;;;;;;;;5840664;22;20714;-71
2022/05/20 01:05:32;;;;;;;12.27;10.73;;;;;;;;;;4953353;28;20644;-73
2022/05/20 01:07:58;;;;;;;12.50;10.57;;;;;;;;;;4966630;28;20261;-72
2022/05/20 01:10:24;;;;;;;11.23;9.93;;;;;;;;;;4950857;28;20615;-73
2022/05/20 01:12:51;;;;;;;11.20;10.00;;;;;;;;;;4970955;28;20209;-73
2022/05/20 01:15:17;;;;;;;12.27;10.97;;;;;;;;;;4973621;28;20312;-72
2022/05/20 01:17:43;;;;;;;12.10;10.90;;;;;;;;;;4965355;28;20671;-72
2022/05/20 01:20:10;;;;;;;13.80;10.30;;;;;;;;;;4974392;28;20178;-73
2022/05/20 01:22:54;;;;;;;12.93;11.03;;;;;;;;;;4972607;28;21045;-72
2022/05/20 01:25:24;;;;;;;12.30;10.10;;;;;;;;;;4972679;28;20197;-72
2022/05/20 01:27:49;;;;;;;11.87;10.57;;;;;;;;;;4973247;28;20692;-73
2022/05/20 01:30:17;;;;;;;13.23;10.83;;;;;;;;;;4969628;28;20642;-73
2022/05/20 01:32:43;;;;;;;13.77;11.20;;;;;;;;;;4971540;28;20639;-73
2022/05/20 01:35:11;;;;;;;15.23;11.47;;;;;;;;;;4972549;28;20190;-72
2022/05/20 01:37:36;;;;;;;13.23;11.73;;;;;;;;;;4961086;28;21327;-72
2022/05/20 01:40:03;;;;;;;12.43;11.13;;;;;;;;;;4973538;28;20183;-73
2022/05/20 01:42:37;;;;;;;13.53;10.63;;;;;;;;;;4964019;28;20214;-73
2022/05/20 01:45:05;;;;;;;11.97;10.77;;;;;;;;;;4953279;28;20562;-72
2022/05/20 01:47:34;;;;;;;12.90;11.07;;;;;;;;;;4968094;28;20191;-72
2022/05/20 01:50:06;;;;;;;13.80;11.80;;;;;;;;;;4974703;28;20568;-73
2022/05/20 01:52:36;;;;;;;12.90;11.57;;;;;;;;;;4970326;28;20190;-73
2022/05/20 01:55:05;;;;;;;14.23;11.93;;;;;;;;;;4955712;28;20867;-72
2022/05/20 01:57:36;;;;;;;13.37;11.93;;;;;;;;;;4970748;28;20210;-73
2022/05/20 02:00:12;;;;;;;12.97;11.13;;;;;;;;;;4961295;28;20277;-72
2022/05/20 02:02:43;;;;;;;13.77;11.47;;;;;;;;;;4967520;28;20257;-72
2022/05/20 02:05:11;;;;;;;14.47;12.13;;;;;;;;;;4973158;28;20197;-73
2022/05/20 02:07:37;;;;;;;15.03;12.63;;;;;;;;;;4973844;28;20660;-72
2022/05/20 02:10:12;;;;;;;14.00;11.60;;;;;;;;;;4969775;28;20198;-71
2022/05/20 02:12:41;;;;;;;14.17;11.70;;;;;;;;;;4963267;28;20719;-72
2022/05/20 02:15:11;;;;;;;13.20;11.37;;;;;;;;;;4969830;28;20186;-73
2022/05/20 02:17:37;;;;;;;13.67;12.27;;;;;;;;;;4971832;28;20230;-72
2022/05/20 02:20:06;;;;;;;13.73;12.27;;;;;;;;;;4972352;28;20571;-72
2022/05/20 02:22:33;;;;;;;14.40;12.90;;;;;;;;;;4971503;28;20260;-72
2022/05/20 02:24:59;;;;;;;13.80;12.40;;;;;;;;;;4954338;28;20186;-73
2022/05/20 02:27:27;;;;;;;13.30;11.90;;;;;;;;;;4942937;28;20298;-73
2022/05/20 02:29:55;;;;;;;12.90;11.57;;;;;;;;;;4972555;28;20203;-73
2022/05/20 02:32:27;;;;;;;15.90;13.07;;;;;;;;;;4970134;28;20187;-71
2022/05/20 02:34:53;;;;;;;14.03;12.40;;;;;;;;;;4977383;28;20203;-73
2022/05/20 02:37:20;;;;;;;12.93;11.63;;;;;;;;;;4971761;28;20281;-73
2022/05/20 02:39:46;;;;;;;14.40;12.47;;;;;;;;;;4972557;28;20656;-73
2022/05/20 02:42:12;;;;;;;13.93;12.63;;;;;;;;;;4969055;28;20195;-73
2022/05/20 02:44:39;;;;;;;14.30;12.80;;;;;;;;;;4973747;28;20219;-71
2022/05/20 02:47:05;;;;;;;14.67;13.10;;;;;;;;;;4972051;28;20190;-73
2022/05/20 02:49:31;;;;;;;14.10;12.60;;;;;;;;;;4970138;28;20201;-73
2022/05/20 02:51:57;;;;;;;14.60;12.47;;;;;;;;;;4968533;28;20198;-72
2022/05/20 02:54:23;;;;;;;13.27;11.93;;;;;;;;;;4956625;28;21082;-71
2022/05/20 02:56:49;;;;;;;13.20;11.90;;;;;;;;;;4973861;28;20214;-72
2022/05/20 03:04:47;;;;;;;14.40;12.93;;;;;;;;;;4971809;28;20626;-74
2022/05/20 03:07:13;;;;;;;15.23;12.90;;;;;;;;;;4977586;28;20198;-71
2022/05/20 03:09:39;;;;;;;15.37;13.30;;;;;;;;;;4976460;28;20233;-71
2022/05/20 03:12:05;;;;;;;14.87;13.30;;;;;;;;;;4973713;28;20198;-73
2022/05/20 03:14:32;;;;;;;15.47;12.80;;;;;;;;;;4974407;28;20195;-73
2022/05/20 03:17:01;;;;;;;15.67;13.97;;;;;;;;;;4974195;28;20579;-73
2022/05/20 03:19:30;;;;;;;14.47;12.97;;;;;;;;;;4968922;28;20185;-73
2022/05/20 03:22:06;;;;;;;15.93;13.37;;;;;;;;;;4974891;28;20543;-72
2022/05/20 03:24:32;;;;;;;13.83;12.50;;;;;;;;;;4972017;28;20295;-72
2022/05/20 03:26:58;;;;;;;15.23;12.83;;;;;;;;;;4979636;28;20217;-72
2022/05/20 03:29:24;;;;;;;15.77;13.40;;;;;;;;;;4969147;28;20221;-72
2022/05/20 03:31:50;;;;;;;16.63;13.30;;;;;;;;;;4972858;28;20206;-73
2022/05/20 03:34:17;;;;;;;17.50;15.33;;;;;;;;;;4969876;28;21413;-73
2022/05/20 03:36:44;;;;;;;17.60;13.80;;;;;;;;;;4973732;28;20219;-73
2022/05/20 03:39:11;;;;;;;17.63;14.20;;;;;;;;;;4972473;28;20658;-72
2022/05/20 03:41:38;;;;;;;16.27;14.37;;;;;;;;;;4967603;28;20604;-72
2022/05/20 03:44:04;;;;;;;15.23;13.63;;;;;;;;;;4979802;28;20195;-71
2022/05/20 03:46:30;;;;;;;17.27;15.07;;;;;;;;;;4973222;28;20197;-72
2022/05/20 03:48:56;;;;;;;16.13;14.47;;;;;;;;;;4972832;28;20250;-72
2022/05/20 03:51:22;;;;;;;15.30;13.70;;;;;;;;;;4969762;28;21046;-72
2022/05/20 03:53:48;;;;;;;16.33;14.50;;;;;;;;;;4978247;28;20302;-72
2022/05/20 03:56:14;;;;;;;16.97;15.20;;;;;;;;;;4970136;28;20273;-73
2022/05/20 03:58:40;;;;;;;16.43;14.73;;;;;;;;;;4974677;28;20294;-73
2022/05/20 04:03:51;;;;;;;16.57;14.70;;;;;;;;;;4968014;28;20395;-72
2022/05/20 04:06:17;;;;;;;17.50;14.23;;;;;;;;;;4968557;28;20191;-73
2022/05/20 04:08:43;;;;;;;17.73;15.07;;;;;;;;;;4968438;28;20194;-73
2022/05/20 04:11:11;;;;;;;17.67;15.43;;;;;;;;;;4966792;28;20298;-72
2022/05/20 04:13:39;;;;;;;18.83;15.70;;;;;;;;;;4968187;28;21168;-72
2022/05/20 04:16:05;;;;;;;17.00;15.10;;;;;;;;;;4970463;28;20683;-72
2022/05/20 04:18:31;;;;;;;16.97;15.17;;;;;;;;;;4967545;28;20353;-72
2022/05/20 04:20:57;;;;;;;16.63;14.77;;;;;;;;;;4965912;28;20194;-73
2022/05/20 04:23:23;;;;;;;17.90;15.83;;;;;;;;;;4965876;28;20191;-73
2022/05/20 04:25:49;;;;;;;23.00;19.67;;;;;;;;;;4972946;28;20208;-72
2022/05/20 04:28:15;;;;;;;24.03;19.47;;;;;;;;;;4959738;28;20330;-72
2022/05/20 04:30:41;;;;;;;21.87;19.67;;;;;;;;;;4965267;28;20190;-72
2022/05/20 04:33:07;;;;;;;24.90;19.40;;;;;;;;;;4969331;28;20193;-71
2022/05/20 04:35:33;;;;;;;25.50;20.80;;;;;;;;;;4951306;28;20195;-72
2022/05/20 04:37:59;;;;;;;23.97;21.37;;;;;;;;;;4951931;28;20288;-72
2022/05/20 04:40:25;;;;;;;23.53;20.97;;;;;;;;;;4956269;28;20194;-72
2022/05/20 04:48:23;;;;;;;25.00;22.30;;;;;;;;;;4958769;28;20197;-72
2022/05/20 04:50:49;;;;;;;26.93;23.00;;;;;;;;;;4953003;28;21582;-73
2022/05/20 04:54:49;;;;;;;27.57;23.00;;;;;;;;;;4960975;28;20195;-72
2022/05/20 04:56:00;;;;;;;26.23;23.07;;;;;;;;;;4957111;28;20667;-73
2022/05/20 04:58:26;;;;;;;25.97;22.87;;;;;;;;;;4965322;28;20248;-73
2022/05/20 05:00:53;;;;;;;29.17;24.53;;;;;;;;;;4965160;28;20280;-72
2022/05/20 05:03:19;;;;;;;26.37;23.50;;;;;;;;;;4956477;28;20256;-72
2022/05/20 05:05:45;;;;;;;27.97;22.90;;;;;;;;;;4966215;28;21480;-74
2022/05/20 05:08:11;;;;;;;25.73;23.07;;;;;;;;;;4968892;28;20198;-72
2022/05/20 05:10:37;;;;;;;24.63;21.77;;;;;;;;;;4971565;28;20201;-72
2022/05/20 05:13:03;;;;;;;25.73;23.07;;;;;;;;;;4950944;28;20199;-71
2022/05/20 05:15:29;;;;;;;25.63;22.93;;;;;;;;;;4959575;28;20635;-73
2022/05/20 05:18:13;;;;;;;32.90;26.70;;;;;;;;;;4954766;28;20254;-70
2022/05/20 05:20:43;;;;;;;33.07;27.00;;;;;;;;;;4962598;28;20221;-70
2022/05/20 05:23:09;;;;;;;37.70;27.23;;;;;;;;;;4969935;28;20222;-70
2022/05/20 05:25:36;;;;;;;36.90;28.20;;;;;;;;;;4968629;28;20280;-69
2022/05/20 05:28:01;;;;;;;33.03;27.70;;;;;;;;;;4966111;28;21544;-70
2022/05/20 05:30:27;;;;;;;33.70;27.70;;;;;;;;;;4971648;28;20237;-70
2022/05/20 05:32:53;;;;;;;33.93;29.93;;;;;;;;;;4962537;28;20636;-70
2022/05/20 05:35:21;;;;;;;34.03;30.30;;;;;;;;;;4968282;28;20207;-70
2022/05/20 05:37:46;;;;;;;34.13;29.80;;;;;;;;;;4970751;28;21360;-69
2022/05/20 05:40:15;;;;;;;35.90;29.03;;;;;;;;;;4974054;28;20191;-70
2022/05/20 05:42:41;;;;;;;37.53;30.10;;;;;;;;;;4968632;28;20197;-70
2022/05/20 05:45:07;;;;;;;39.43;30.63;;;;;;;;;;4971169;28;20194;-70
2022/05/20 05:47:33;;;;;;;35.37;30.07;;;;;;;;;;4968298;28;20204;-69
2022/05/20 05:49:59;;;;;;;34.70;30.87;;;;;;;;;;4971461;28;20202;-70
2022/05/20 05:52:25;;;;;;;34.50;29.10;;;;;;;;;;4970946;28;20194;-70
2022/05/20 05:54:51;;;;;;;33.23;27.67;;;;;;;;;;4971836;28;20251;-71
2022/05/20 05:57:17;;;;;;;32.33;28.17;;;;;;;;;;4964387;28;20215;-70
2022/05/20 05:59:43;;;;;;;36.37;28.10;;;;;;;;;;4972665;28;20198;-70
2022/05/20 06:02:09;;;;;;;37.23;28.83;;;;;;;;;;4972158;28;20187;-70
2022/05/20 06:04:35;;;;;;;34.77;27.77;;;;;;;;;;4972473;28;21816;-71
2022/05/20 06:07:01;;;;;;;33.80;27.80;;;;;;;;;;4965305;28;20198;-71
2022/05/20 06:09:27;;;;;;;36.20;28.80;;;;;;;;;;4970735;28;20218;-71
2022/05/20 06:11:53;;;;;;;31.50;26.77;;;;;;;;;;4972009;28;20768;-71
2022/05/20 06:14:19;;;;;;;33.33;28.60;;;;;;;;;;4972391;28;20190;-71
2022/05/20 06:16:45;;;;;;;34.53;28.77;;;;;;;;;;4970482;28;20194;-70
2022/05/20 06:19:11;;;;;;;31.63;26.83;;;;;;;;;;4977553;28;20194;-68
2022/05/20 06:21:37;;;;;;;34.53;28.97;;;;;;;;;;4972379;28;20664;-69
2022/05/20 06:24:04;;;;;;;36.27;29.80;;;;;;;;;;4971312;28;20689;-69
2022/05/20 06:26:29;;;;;;;31.73;27.17;;;;;;;;;;4973548;28;20194;-69
2022/05/20 06:28:55;;;;;;;32.10;28.40;;;;;;;;;;4976053;28;20761;-70
2022/05/20 06:31:21;;;;;;;35.47;27.80;;;;;;;;;;4973504;28;20191;-71
2022/05/20 06:33:47;;;;;;;32.47;26.50;;;;;;;;;;4978606;28;20301;-70
2022/05/20 06:41:42;;;;;;;31.67;27.10;;;;;;;;;;4978016;28;20256;-70
2022/05/20 06:44:08;;;;;;;34.33;28.40;;;;;;;;;;4972021;28;20661;-69
2022/05/20 06:46:34;;;;;;;32.93;26.17;;;;;;;;;;4976749;28;20727;-69
2022/05/20 06:49:00;;;;;;;32.33;26.57;;;;;;;;;;4980059;28;20228;-70
2022/05/20 06:51:30;;;;;;;32.53;27.00;;;;;;;;;;4978086;28;20714;-70
2022/05/20 06:53:57;;;;;;;33.23;25.73;;;;;;;;;;4976853;28;20197;-70
2022/05/20 06:56:24;;;;;;;28.00;24.43;;;;;;;;;;4978825;28;20195;-72
2022/05/20 06:58:50;;;;;;;27.63;23.97;;;;;;;;;;4978386;28;20245;-70
2022/05/20 07:01:16;;;;;;;26.47;23.50;;;;;;;;;;4974198;28;20624;-70
2022/05/20 07:03:42;;;;;;;28.77;24.35;;;;;;;;;;4970227;28;20236;-70
2022/05/20 07:06:08;;;;;;;29.60;24.30;;;;;;;;;;4975183;28;20201;-70
2022/05/20 07:08:34;;;;;;;28.58;25.00;;;;;;;;;;4975131;28;20196;-70
2022/05/20 07:11:02;;;;;;;30.05;25.58;;;;;;;;;;4973304;28;20198;-70
2022/05/20 07:13:28;;;;;;;32.25;26.80;;;;;;;;;;4973116;28;20237;-70
2022/05/20 07:15:54;;;;;;;30.45;25.55;;;;;;;;;;4978630;28;20205;-71
2022/05/20 07:18:20;;;;;;;33.58;24.95;;;;;;;;;;4973786;28;20215;-71
2022/05/20 07:20:46;;;;;;;26.15;22.73;;;;;;;;;;4974074;28;20699;-70
2022/05/20 07:23:12;;;;;;;31.65;26.20;;;;;;;;;;4976245;28;20187;-72
2022/05/20 07:25:38;;;;;;;31.30;25.92;;;;;;;;;;4974996;28;20194;-70
2022/05/20 07:28:05;;;;;;;31.00;25.50;;;;;;;;;;4974058;28;20190;-70
2022/05/20 07:30:31;;;;;;;30.52;24.75;;;;;;;;;;4969587;28;20289;-70
2022/05/20 07:32:58;;;;;;;33.05;26.27;;;;;;;;;;4974673;28;21141;-71
2022/05/20 07:35:24;;;;;;;33.88;26.00;;;;;;;;;;4974518;28;20205;-70
2022/05/20 07:37:52;;;;;;;28.77;25.10;;;;;;;;;;4973448;28;20579;-70
2022/05/20 07:40:18;;;;;;;32.75;25.27;;;;;;;;;;4976617;28;20193;-70
2022/05/20 07:42:44;;;;;;;27.85;24.92;;;;;;;;;;4974018;28;20167;-71
2022/05/20 07:45:11;;;;;;;30.70;25.73;;;;;;;;;;4972108;28;20229;-71
2022/05/20 07:47:36;;;;;;;26.60;23.80;;;;;;;;;;4972704;28;20201;-69
2022/05/20 07:50:04;;;;;;;30.85;26.58;;;;;;;;;;4975554;28;20186;-69
2022/05/20 07:55:15;;;;;;;31.23;25.67;;;;;;;;;;4968324;28;20624;-69
2022/05/20 07:57:40;;;;;;;27.55;24.42;;;;;;;;;;4979713;28;20219;-69
2022/05/20 08:00:09;;;;;;;30.08;25.15;;;;;;;;;;4976304;28;20194;-70
2022/05/20 08:02:35;;;;;;;30.75;25.83;;;;;;;;;;4963547;28;20186;-70
2022/05/20 08:05:01;;;;;;;28.08;24.92;;;;;;;;;;4960420;28;20218;-70
2022/05/20 08:07:34;;;;;;;30.15;24.70;;;;;;;;;;4972198;28;20262;-70
2022/05/20 08:10:00;;;;;;;27.92;24.92;;;;;;;;;;4960664;28;20632;-69
2022/05/20 08:12:26;;;;;;;27.10;23.98;;;;;;;;;;4971361;28;21203;-69
2022/05/20 08:14:52;;;;;;;27.98;24.83;;;;;;;;;;4969664;28;20182;-70
2022/05/20 08:17:19;;;;;;;28.88;24.88;;;;;;;;;;4973327;28;20675;-69
2022/05/20 08:19:45;;;;;;;28.23;25.30;;;;;;;;;;4972578;28;20652;-70
2022/05/20 08:22:11;;;;;;;26.10;23.25;;;;;;;;;;4973721;28;20334;-70
2022/05/20 08:24:37;;;;;;;24.60;21.67;;;;;;;;;;4974498;28;20595;-70
2022/05/20 08:27:03;;;;;;;27.55;23.52;;;;;;;;;;4966981;28;20194;-70
2022/05/20 08:29:31;;;;;;;31.33;26.95;;;;;;;;;;4971047;28;20648;-68
2022/05/20 08:31:57;;;;;;;28.73;25.40;;;;;;;;;;4970619;28;20537;-71
2022/05/20 08:34:23;;;;;;;29.08;26.08;;;;;;;;;;4974227;28;20205;-70
2022/05/20 08:36:49;;;;;;;37.75;33.65;;;;;;;;;;4973123;28;20202;-70
2022/05/20 08:39:15;;;;;;;37.83;32.28;;;;;;;;;;4972120;28;20194;-70
2022/05/20 08:41:48;;;;;;;30.92;27.65;;;;;;;;;;4969839;28;20485;-71
2022/05/20 08:44:15;;;;;;;31.05;27.67;;;;;;;;;;4973198;28;20225;-69
2022/05/20 08:46:41;;;;;;;27.02;23.90;;;;;;;;;;4976545;28;20689;-71
2022/05/20 08:49:14;;;;;;;33.03;29.25;;;;;;;;;;4967861;28;20178;-69
2022/05/20 08:51:41;;;;;;;27.52;24.67;;;;;;;;;;4971667;28;20183;-69
2022/05/20 08:54:07;;;;;;;31.90;28.60;;;;;;;;;;4974227;28;20540;-70
2022/05/20 08:56:33;;;;;;;31.35;26.73;;;;;;;;;;4970917;28;20209;-70
2022/05/20 08:59:00;;;;;;;29.23;26.17;;;;;;;;;;4968796;28;20207;-70
2022/05/20 09:01:30;;;;;;;32.35;28.95;;;;;;;;;;4970715;28;20193;-70
2022/05/20 09:03:56;;;;;;;28.90;25.90;;;;;;;;;;4968126;28;20296;-70
2022/05/20 09:06:22;;;;;;;27.33;23.05;;;;;;;;;;4972503;28;21205;-69
2022/05/20 09:09:14;;;;;;;28.85;25.67;;;;;;;;;;4965341;28;20204;-69
2022/05/20 09:11:41;;;;;;;29.45;26.15;;;;;;;;;;4973110;28;20210;-70
2022/05/20 09:17:04;;;;;;;27.20;24.38;;;;;;;;;;4967454;28;20233;-70
2022/05/20 09:19:30;;;;;;;27.33;24.42;;;;;;;;;;4971681;28;20566;-70
2022/05/20 09:22:25;;;;;;;26.17;23.58;;;;;;;;;;4972183;28;20190;-70
2022/05/20 09:24:51;;;;;;;27.42;24.63;;;;;;;;;;4966094;28;20676;-70
2022/05/20 09:27:33;;;;;;;23.55;21.08;;;;;;;;;;4970014;28;20357;-71
2022/05/20 09:30:06;;;;;;;24.60;22.25;;;;;;;;;;4963139;28;20205;-70
2022/05/20 09:32:35;;;;;;;24.27;21.98;;;;;;;;;;4965941;28;20233;-70
2022/05/20 09:35:02;;;;;;;23.85;21.10;;;;;;;;;;4962031;28;20337;-70
2022/05/20 09:37:29;;;;;;;23.70;21.23;;;;;;;;;;4971254;28;20206;-71
2022/05/20 09:39:55;;;;;;;23.13;20.92;;;;;;;;;;4966113;28;20261;-70
2022/05/20 09:42:21;;;;;;;20.63;18.58;;;;;;;;;;4968485;28;20656;-70
2022/05/20 09:44:48;;;;;;;22.33;19.30;;;;;;;;;;4970819;28;20242;-70
2022/05/20 09:47:24;;;;;;;24.85;19.77;;;;;;;;;;4972406;28;20199;-70
2022/05/20 09:50:13;;;;;;;21.15;18.98;;;;;;;;;;4969261;28;20190;-70
2022/05/20 09:52:59;;;;;;;23.45;20.98;;;;;;;;;;4964439;28;20578;-71
2022/05/20 09:55:27;;;;;;;23.02;20.42;;;;;;;;;;4964938;28;20221;-71
2022/05/20 09:57:55;;;;;;;22.00;19.65;;;;;;;;;;4971134;28;20218;-70
2022/05/20 10:00:23;;;;;;;20.23;18.25;;;;;;;;;;4972508;28;20236;-71
2022/05/20 10:03:09;;;;;;;20.55;18.35;;;;;;;;;;4968532;28;20246;-70
2022/05/20 10:05:38;;;;;;;23.70;19.80;;;;;;;;;;4969548;28;20225;-69
2022/05/20 10:08:07;;;;;;;22.40;20.08;;;;;;;;;;4969471;28;20189;-71
2022/05/20 10:10:33;;;;;;;22.80;20.23;;;;;;;;;;4970945;28;20820;-71
2022/05/20 10:13:00;;;;;;;20.98;18.70;;;;;;;;;;4966925;28;20202;-69
2022/05/20 10:15:27;;;;;;;21.33;19.15;;;;;;;;;;4960102;28;20186;-74
2022/05/20 10:18:05;;;;;;;20.27;18.20;;;;;;;;;;4961330;28;20317;-69
2022/05/20 10:21:00;;;;;;;18.30;16.48;;;;;;;;;;4967889;28;20190;-71
2022/05/20 10:23:33;;;;;;;17.65;15.60;;;;;;;;;;4962379;28;20838;-70
2022/05/20 10:26:34;;;;;;;18.25;15.88;;;;;;;;;;4964335;28;20190;-70
2022/05/20 10:34:40;;;;;;;14.88;12.80;;;;;;;;;;4965990;28;20188;-71
2022/05/20 10:37:15;;;;;;;14.48;12.85;;;;;;;;;;4964238;28;20221;-70
2022/05/20 10:40:00;;;;;;;13.52;12.10;;;;;;;;;;4946492;28;20562;-69
2022/05/20 10:42:45;;;;;;;16.00;13.48;;;;;;;;;;4961699;28;20210;-70
2022/05/20 10:51:05;;;;;;;14.45;13.07;;;;;;;;;;4964460;28;20224;-71
2022/05/20 10:53:49;;;;;;;15.27;13.15;;;;;;;;;;4964349;28;21021;-70
2022/05/20 10:56:20;;;;;;;14.82;13.27;;;;;;;;;;4957231;28;20202;-70
2022/05/20 10:58:55;;;;;;;13.50;11.80;;;;;;;;;;4962154;28;20250;-69
2022/05/20 11:01:21;;;;;;;13.48;11.63;;;;;;;;;;4967365;28;20186;-71
2022/05/20 11:03:56;;;;;;;13.00;11.65;;;;;;;;;;4960112;28;20250;-72
2022/05/20 11:06:41;;;;;;;13.25;10.98;;;;;;;;;;4964631;28;20202;-71
2022/05/20 11:09:07;;;;;;;11.13;10.02;;;;;;;;;;4954087;28;20305;-71
2022/05/20 11:11:42;;;;;;;11.95;10.75;;;;;;;;;;4961419;28;20193;-71
2022/05/20 11:14:07;;;;;;;12.55;10.90;;;;;;;;;;4958589;28;20201;-70
2022/05/20 11:16:52;;;;;;;11.50;10.32;;;;;;;;;;4948431;28;20194;-71
2022/05/20 11:19:23;;;;;;;11.02;9.98;;;;;;;;;;4964165;28;20205;-70
2022/05/20 11:22:08;;;;;;;10.60;9.50;;;;;;;;;;4961371;28;20198;-72
2022/05/20 11:24:49;;;;;;;9.52;8.50;;;;;;;;;;4965368;28;20194;-71
2022/05/20 11:27:15;;;;;;;10.10;9.18;;;;;;;;;;4968593;28;20817;-72
2022/05/20 11:30:02;;;;;;;9.95;8.98;;;;;;;;;;4967902;28;20179;-72
2022/05/20 11:32:32;;;;;;;9.00;7.57;;;;;;;;;;4972097;28;21642;-72
2022/05/20 11:34:59;;;;;;;9.05;8.15;;;;;;;;;;4965184;28;20186;-71
2022/05/20 11:37:43;;;;;;;9.40;8.50;;;;;;;;;;4965820;28;20224;-71
2022/05/20 11:40:18;;;;;;;8.82;7.93;;;;;;;;;;4965768;28;20206;-72
2022/05/20 11:43:00;;;;;;;10.32;8.55;;;;;;;;;;4959218;28;20297;-72
2022/05/20 11:45:44;;;;;;;10.65;7.70;;;;;;;;;;4960274;28;20312;-73
2022/05/20 11:48:14;;;;;;;9.30;7.05;;;;;;;;;;4964988;28;20200;-72
2022/05/20 11:51:00;;;;;;;16.90;7.70;;;;;;;;;;4964792;28;20592;-74
2022/05/20 11:53:37;;;;;;;7.70;7.00;;;;;;;;;;4963850;28;20619;-73
2022/05/20 11:56:07;;;;;;;9.80;8.38;;;;;;;;;;4961940;28;20233;-71
2022/05/20 11:58:36;;;;;;;9.25;8.35;;;;;;;;;;4962644;28;20214;-71
2022/05/20 12:01:02;;;;;;;9.10;8.20;;;;;;;;;;4959335;28;20261;-71
2022/05/20 12:04:06;;;;;;;10.85;9.52;;;;;;;;;;4958355;28;20230;-72
2022/05/20 12:06:21;;;;;;;20.00;9.30;;;;;;;;;;4964054;28;20274;-72
2022/05/20 12:08:47;;;;;;;23.92;9.18;;;;;;;;;;4956935;28;20199;-70
2022/05/20 12:11:26;;;;;;;9.93;8.88;;;;;;;;;;4956251;28;20198;-74
2022/05/20 12:14:08;;;;;;;14.68;8.85;;;;;;;;;;4971318;28;20213;-71
2022/05/20 12:16:34;;;;;;;10.05;8.80;;;;;;;;;;4958123;28;20197;-73
2022/05/20 12:24:50;;;;;;;9.57;7.18;;;;;;;;;;4966410;28;20569;-73
2022/05/20 12:27:22;;;;;;;8.00;7.13;;;;;;;;;;4960060;28;20193;-72
2022/05/20 12:29:59;;;;;;;10.55;6.82;;;;;;;;;;4955695;28;20253;-73
2022/05/20 12:32:31;;;;;;;13.27;6.80;;;;;;;;;;4964889;28;21487;-72
2022/05/20 12:35:06;;;;;;;7.68;6.57;;;;;;;;;;4949115;28;20268;-72
2022/05/20 12:37:51;;;;;;;18.65;6.22;;;;;;;;;;4970091;28;20272;-72
2022/05/20 12:40:20;;;;;;;6.97;6.38;;;;;;;;;;4963606;28;20194;-73
2022/05/20 12:42:49;;;;;;;7.18;6.22;;;;;;;;;;4961536;28;20194;-71
2022/05/20 12:45:15;;;;;;;7.10;6.30;;;;;;;;;;4967661;28;20191;-72
2022/05/20 12:47:41;;;;;;;8.55;7.63;;;;;;;;;;4969942;28;20201;-72
2022/05/20 12:50:08;;;;;;;17.10;9.88;;;;;;;;;;4958618;28;20197;-71
2022/05/20 12:52:55;;;;;;;11.82;9.48;;;;;;;;;;4963751;28;20183;-71
2022/05/20 12:55:21;;;;;;;14.02;10.32;;;;;;;;;;4961687;28;20186;-71
2022/05/20 12:57:51;;;;;;;14.38;11.35;;;;;;;;;;4964427;28;20215;-72
2022/05/20 13:00:18;;;;;;;11.57;10.30;;;;;;;;;;4969710;28;20541;-71
2022/05/20 13:02:44;;;;;;;16.48;12.10;;;;;;;;;;4958211;28;20214;-71
2022/05/20 13:05:20;;;;;;;16.58;10.63;;;;;;;;;;4975517;28;20240;-71
2022/05/20 13:07:47;;;;;;;15.43;11.45;;;;;;;;;;4959765;28;20562;-71
2022/05/20 13:10:30;;;;;;;13.15;11.82;;;;;;;;;;4953081;28;20733;-72
2022/05/20 13:12:58;;;;;;;13.13;11.70;;;;;;;;;;4964675;28;20219;-72
2022/05/20 13:15:24;;;;;;;13.15;11.60;;;;;;;;;;4957158;28;20194;-72
2022/05/20 13:17:51;;;;;;;14.18;10.27;;;;;;;;;;4964936;28;20325;-72
2022/05/20 13:20:17;;;;;;;10.50;9.50;;;;;;;;;;4956334;28;20191;-71
2022/05/20 13:22:50;;;;;;;10.15;9.25;;;;;;;;;;4949378;28;20190;-72
2022/05/20 13:25:16;;;;;;;11.55;8.77;;;;;;;;;;4936870;28;20226;-72
2022/05/20 13:27:46;;;;;;;10.55;8.10;;;;;;;;;;4966735;28;20225;-72
2022/05/20 13:30:17;;;;;;;11.57;7.50;;;;;;;;;;4966991;28;20245;-72
2022/05/20 13:32:43;;;;;;;8.00;7.20;;;;;;;;;;4969521;28;20190;-71
2022/05/20 13:35:09;;;;;;;5.97;5.35;;;;;;;;;;4967038;28;20707;-73
2022/05/20 13:37:39;;;;;;;5.65;4.90;;;;;;;;;;4962651;28;20234;-72
2022/05/20 13:40:10;;;;;;;6.35;3.95;;;;;;;;;;4945764;28;20282;-71
2022/05/20 13:42:36;;;;;;;5.20;4.43;;;;;;;;;;4957999;28;20217;-72
2022/05/20 13:45:06;;;;;;;5.15;4.03;;;;;;;;;;4960128;28;20209;-73
2022/05/20 13:50:16;;;;;;;5.72;3.83;;;;;;;;;;4966185;28;20942;-72
2022/05/20 13:52:43;;;;;;;4.05;3.20;;;;;;;;;;4966661;28;20235;-72
2022/05/20 13:55:09;;;;;;;4.45;3.35;;;;;;;;;;4961939;28;20187;-72
2022/05/20 13:57:39;;;;;;;3.22;2.95;;;;;;;;;;4963031;28;20208;-72
2022/05/20 14:00:27;;;;;;;3.47;3.10;;;;;;;;;;4938090;28;20195;-73
2022/05/20 14:02:54;;;;;;;4.10;3.10;;;;;;;;;;4966744;28;20560;-72
2022/05/20 14:05:28;;;;;;;4.43;3.20;;;;;;;;;;4958561;28;20730;-72
2022/05/20 14:07:54;;;;;;;4.10;3.70;;;;;;;;;;4956843;28;20218;-72
2022/05/20 14:10:31;;;;;;;8.18;3.95;;;;;;;;;;4952779;28;20195;-72
2022/05/20 14:12:57;;;;;;;4.03;3.72;;;;;;;;;;4961364;28;21921;-74
2022/05/20 14:15:34;;;;;;;4.93;3.38;;;;;;;;;;4948794;28;20288;-73
2022/05/20 14:18:06;;;;;;;4.63;4.03;;;;;;;;;;4956353;28;20218;-72
2022/05/20 14:20:35;;;;;;;5.93;3.97;;;;;;;;;;4958782;28;20268;-72
2022/05/20 14:23:01;;;;;;;4.63;3.80;;;;;;;;;;4947032;28;22619;-73
2022/05/20 14:25:31;;;;;;;4.35;3.80;;;;;;;;;;4962739;28;20642;-74
2022/05/20 14:28:08;;;;;;;6.53;4.53;;;;;;;;;;4943696;28;20233;-73
2022/05/20 14:30:37;;;;;;;5.47;4.97;;;;;;;;;;4945478;28;20205;-71
2022/05/20 14:33:05;;;;;;;8.48;4.90;;;;;;;;;;4963205;28;20194;-72
2022/05/20 14:35:33;;;;;;;10.77;5.55;;;;;;;;;;4959351;28;20186;-71
2022/05/20 14:38:00;;;;;;;9.65;5.22;;;;;;;;;;4966745;28;20330;-71
2022/05/20 14:40:29;;;;;;;6.45;5.15;;;;;;;;;;4965489;28;20647;-69
2022/05/20 14:42:55;;;;;;;9.00;5.05;;;;;;;;;;4963908;28;20643;-70
2022/05/20 14:45:32;;;;;;;8.88;4.22;;;;;;;;;;4944076;28;20238;-70
2022/05/20 14:48:08;;;;;;;5.00;4.18;;;;;;;;;;4954684;28;20259;-71
2022/05/20 14:50:34;;;;;;;4.28;3.85;;;;;;;;;;4930014;28;20201;-70
2022/05/20 14:53:04;;;;;;;4.38;3.67;;;;;;;;;;4952543;28;26505;-71
2022/05/20 14:55:31;;;;;;;4.43;3.50;;;;;;;;;;4958082;28;20190;-71
2022/05/20 14:58:04;;;;;;;3.53;3.22;;;;;;;;;;4953326;28;20527;-71
2022/05/20 15:00:31;;;;;;;3.92;3.22;;;;;;;;;;4953397;28;20213;-71
2022/05/20 15:02:57;;;;;;;3.87;3.47;;;;;;;;;;4944154;28;20364;-71
2022/05/20 15:05:24;;;;;;;6.20;3.37;;;;;;;;;;4940737;28;20757;-72
2022/05/20 15:07:53;;;;;;;3.67;3.38;;;;;;;;;;4960734;28;20269;-72
2022/05/20 15:10:21;;;;;;;3.93;3.57;;;;;;;;;;4960331;28;20244;-72
2022/05/20 15:12:47;;;;;;;4.93;3.83;;;;;;;;;;4967168;28;20272;-72
2022/05/20 15:15:13;;;;;;;4.07;3.70;;;;;;;;;;4965429;28;20219;-71
2022/05/20 15:17:55;;;;;;;4.18;3.50;;;;;;;;;;4966967;28;20222;-71
2022/05/20 15:20:21;;;;;;;4.10;3.70;;;;;;;;;;4962363;28;20195;-72
2022/05/20 15:22:47;;;;;;;4.43;3.60;;;;;;;;;;4965785;28;20182;-71